Time;durP1;ratioP1;P1;durP2;ratioP2;P2;SDS_P1;SDS_P2;PMS_P1;PMS_P2;Temp;Humidity;BMP_temperature;BMP_pressure;BME280_temperature;BME280_humidity;BME280_pressure;Samples;Min_cycle;Max_cycle;Signal;HPM_P1;HPM_P2
2022/11/02 00:01:52;;;;;;;;;;;;;;;;;;10392782;28;19917;-84
2022/11/02 00:06:53;;;;;;;;;;;;;;;;;;10370792;28;19921;-83
2022/11/02 00:11:53;;;;;;;;;;;;;;;;;;10371404;28;19921;-82
2022/11/02 00:16:53;;;;;;;;;;;;;;;;;;10377467;28;19926;-79
2022/11/02 00:21:55;;;;;;;;;;;;;;;;;;10371156;28;20008;-78
2022/11/02 00:26:55;;;;;;;;;;;;;;;;;;10386282;28;19917;-79
2022/11/02 00:31:56;;;;;;;;;;;;;;;;;;10377307;28;20362;-79
2022/11/02 00:36:57;;;;;;;;;;;;;;;;;;10387429;28;19921;-78
2022/11/02 00:41:58;;;;;;;;;;;;;;;;;;10377508;28;19925;-77
2022/11/02 00:46:58;;;;;;;;;;;;;;;;;;10373565;28;19956;-79
2022/11/02 00:51:58;;;;;;;;;;;;;;;;;;10379536;28;19921;-80
2022/11/02 00:57:01;;;;;;;;;;;;;;;;;;10390226;28;19954;-81
2022/11/02 01:02:02;;;;;;;;;;;;;;;;;;10391040;28;19949;-79
2022/11/02 01:07:02;;;;;;;;;;;;;;;;;;10358815;28;19917;-77
2022/11/02 01:12:02;;;;;;;;;;;;;;;;;;10379432;28;19917;-80
2022/11/02 01:17:03;;;;;;;;;;;;;;;;;;10376772;28;20307;-80
2022/11/02 01:22:03;;;;;;;;;;;;;;;;;;10390712;28;20278;-80
2022/11/02 01:27:04;;;;;;;;;;;;;;;;;;10369733;28;19944;-79
2022/11/02 01:32:04;;;;;;;;;;;;;;;;;;10410223;28;19913;-83
2022/11/02 01:37:04;;;;;;;;;;;;;;;;;;10422538;28;20036;-79
2022/11/02 01:42:05;;;;;;;;;;;;;;;;;;10381255;28;20837;-77
2022/11/02 01:47:05;;;;;;;;;;;;;;;;;;10373813;28;19956;-77
2022/11/02 01:52:06;;;;;;;;;;;;;;;;;;10371938;28;20385;-80
2022/11/02 01:57:06;;;;;;;;;;;;;;;;;;10360976;28;19952;-79
2022/11/02 02:02:06;;;;;;;;;;;;;;;;;;10387996;28;19929;-78
2022/11/02 02:07:09;;;;;;;;;;;;;;;;;;10372340;28;20004;-81
2022/11/02 02:12:10;;;;;;;;;;;;;;;;;;10406573;28;19921;-80
2022/11/02 02:17:11;;;;;;;;;;;;;;;;;;10367148;28;19932;-80
2022/11/02 02:22:13;;;;;;;;;;;;;;;;;;10376739;28;19977;-80
2022/11/02 02:27:13;;;;;;;;;;;;;;;;;;10402422;28;20014;-81
2022/11/02 02:32:13;;;;;;;;;;;;;;;;;;10388708;28;20019;-81
2022/11/02 02:37:14;;;;;;;;;;;;;;;;;;10392426;28;19921;-80
2022/11/02 02:42:14;;;;;;;;;;;;;;;;;;10388648;28;19929;-81
2022/11/02 02:47:14;;;;;;;;;;;;;;;;;;10378616;28;19917;-80
2022/11/02 02:52:14;;;;;;;;;;;;;;;;;;10372642;28;19987;-80
2022/11/02 02:57:15;;;;;;;;;;;;;;;;;;10365819;28;19928;-79
2022/11/02 03:02:15;;;;;;;;;;;;;;;;;;10388525;28;20383;-78
2022/11/02 03:07:15;;;;;;;;;;;;;;;;;;10380404;28;19917;-79
2022/11/02 03:12:16;;;;;;;;;;;;;;;;;;10383915;28;19924;-79
2022/11/02 03:17:16;;;;;;;;;;;;;;;;;;10377283;28;20023;-78
2022/11/02 03:22:19;;;;;;;;;;;;;;;;;;10382395;28;19921;-80
2022/11/02 03:27:20;;;;;;;;;;;;;;;;;;10387861;28;20328;-79
2022/11/02 03:32:20;;;;;;;;;;;;;;;;;;10366881;28;20015;-81
2022/11/02 03:37:21;;;;;;;;;;;;;;;;;;10361486;28;19948;-82
2022/11/02 03:42:22;;;;;;;;;;;;;;;;;;10383906;28;19966;-78
2022/11/02 03:47:24;;;;;;;;;;;;;;;;;;10384974;28;19922;-79
2022/11/02 03:52:25;;;;;;;;;;;;;;;;;;10386817;28;19925;-80
2022/11/02 03:57:27;;;;;;;;;;;;;;;;;;10374628;28;20392;-77
2022/11/02 04:02:27;;;;;;;;;;;;;;;;;;10359318;28;19940;-76
2022/11/02 04:07:27;;;;;;;;;;;;;;;;;;10377768;28;19927;-76
2022/11/02 04:28:25;;;;;;;;;;;;;;;;;;10419655;28;19917;-79
2022/11/02 04:33:32;;;;;;;;;;;;;;;;;;10432142;28;19932;-77
2022/11/02 04:38:41;;;;;;;;;;;;;;;;;;10383679;28;20365;-76
2022/11/02 04:44:00;;;;;;;;;;;;;;;;;;10389666;28;19921;-77
2022/11/02 04:49:00;;;;;;;;;;;;;;;;;;10367080;28;20277;-79
2022/11/02 04:54:01;;;;;;;;;;;;;;;;;;10373391;28;20391;-76
2022/11/02 04:59:02;;;;;;;;;;;;;;;;;;10372783;28;20275;-80
2022/11/02 05:04:04;;;;;;;;;;;;;;;;;;10385463;28;20039;-78
2022/11/02 05:09:07;;;;;;;;;;;;;;;;;;10385305;28;20349;-78
2022/11/02 05:14:07;;;;;;;;;;;;;;;;;;10365279;28;19929;-78
2022/11/02 05:19:07;;;;;;;;;;;;;;;;;;10385826;28;19925;-78
2022/11/02 05:24:07;;;;;;;;;;;;;;;;;;10391789;28;19929;-83
2022/11/02 05:29:08;;;;;;;;;;;;;;;;;;10381293;28;19921;-80
2022/11/02 05:34:09;;;;;;;;;;;;;;;;;;10377135;28;20334;-80
2022/11/02 05:39:10;;;;;;;;;;;;;;;;;;10408749;28;19994;-81
2022/11/02 05:44:10;;;;;;;;;;;;;;;;;;10386657;28;19968;-79
2022/11/02 05:49:12;;;;;;;;;;;;;;;;;;10366449;28;19925;-80
2022/11/02 05:54:13;;;;;;;;;;;;;;;;;;10390337;28;19921;-84
2022/11/02 05:59:14;;;;;;;;;;;;;;;;;;10382978;28;19929;-79
2022/11/02 06:04:14;;;;;;;;;;;;;;;;;;10393306;28;19931;-77
2022/11/02 06:09:15;;;;;;;;;;;;;;;;;;10390504;28;20302;-76
2022/11/02 06:14:16;;;;;;;;;;;;;;;;;;10402584;28;19952;-80
2022/11/02 06:19:16;;;;;;;;;;;;;;;;;;10375882;28;19933;-82
2022/11/02 06:24:16;;;;;;;;;;;;;;;;;;10408333;28;19964;-79
2022/11/02 06:29:16;;;;;;;;;;;;;;;;;;10378443;28;19921;-80
2022/11/02 06:34:17;;;;;;;;;;;;;;;;;;10403613;28;20073;-79
2022/11/02 06:39:17;;;;;;;;;;;;;;;;;;10377778;28;19926;-80
2022/11/02 06:44:17;;;;;;;;;;;;;;;;;;10370828;28;19925;-79
2022/11/02 06:49:17;;;;;;;;;;;;;;;;;;10401740;28;19924;-84
2022/11/02 06:54:18;;;;;;;;;;;;;;;;;;10428011;28;20147;-82
2022/11/02 06:59:18;;;;;;;;;;;;;;;;;;10368742;28;19929;-81
2022/11/02 07:04:19;;;;;;;;;;;;;;;;;;10412745;28;19971;-80
2022/11/02 07:09:19;;;;;;;;;;;;;;;;;;10390313;28;20381;-79
2022/11/02 07:14:19;;;;;;;;;;;;;;;;;;10377300;28;20346;-80
2022/11/02 07:19:19;;;;;;;;;;;;;;;;;;10388743;28;20296;-82
2022/11/02 07:24:20;;;;;;;;;;;;;;;;;;10420336;28;19902;-82
2022/11/02 07:29:20;;;;;;;;;;;;;;;;;;10404072;28;19919;-78
2022/11/02 07:34:20;;;;;;;;;;;;;;;;;;10384650;28;19959;-82
2022/11/02 07:39:21;;;;;;;;;;;;;;;;;;10389303;28;20297;-81
2022/11/02 07:44:23;;;;;;;;;;;;;;;;;;10395269;28;20304;-81
2022/11/02 07:49:29;;;;;;;;;;;;;;;;;;10372382;28;20366;-78
2022/11/02 07:54:31;;;;;;;;;;;;;;;;;;10394296;28;19925;-79
2022/11/02 07:59:31;;;;;;;;;;;;;;;;;;10372288;28;19968;-78
2022/11/02 08:04:32;;;;;;;;;;;;;;;;;;10396943;28;19963;-82
2022/11/02 08:09:32;;;;;;;;;;;;;;;;;;10383692;28;19917;-82
2022/11/02 08:14:33;;;;;;;;;;;;;;;;;;10392284;28;20346;-84
2022/11/02 08:19:34;;;;;;;;;;;;;;;;;;10370491;28;20436;-83
2022/11/02 08:24:34;;;;;;;;;;;;;;;;;;10406239;28;20012;-81
2022/11/02 08:29:38;;;;;;;;;;;;;;;;;;10379993;28;19928;-83
2022/11/02 08:34:39;;;;;;;;;;;;;;;;;;10363297;28;19921;-82
2022/11/02 08:39:42;;;;;;;;;;;;;;;;;;10394339;28;19921;-85
2022/11/02 08:44:43;;;;;;;;;;;;;;;;;;10396293;28;19921;-84
2022/11/02 08:49:45;;;;;;;;;;;;;;;;;;10393649;28;19918;-83
2022/11/02 08:54:48;;;;;;;;;;;;;;;;;;10402675;28;19944;-84
2022/11/02 08:59:48;;;;;;;;;;;;;;;;;;10391590;28;20442;-81
2022/11/02 09:04:49;;;;;;;;;;;;;;;;;;10394628;28;20099;-81
2022/11/02 09:09:49;;;;;;;;;;;;;;;;;;10398183;28;19918;-80
2022/11/02 09:14:50;;;;;;;;;;;;;;;;;;10480586;23;19929;-81
2022/11/02 09:19:52;;;;;;;;;;;;;;;;;;10325435;28;20433;-74
2022/11/02 09:24:52;;;;;;;;;;;;;;;;;;10308584;28;20025;-75
2022/11/02 09:29:53;;;;;;;;;;;;;;;;;;10304898;28;19929;-80
2022/11/02 09:34:53;;;;;;;;;;;;;;;;;;10298115;28;19922;-75
2022/11/02 09:39:53;;;;;;;;;;;;;;;;;;10304773;28;19930;-75
2022/11/02 09:44:54;;;;;;;;;;;;;;;;;;10300624;28;19980;-74
2022/11/02 09:49:54;;;;;;;;;;;;;;;;;;10306789;28;20425;-80
2022/11/02 09:54:54;;;;;;;;;;;;;;;;;;10300809;28;19918;-79
2022/11/02 09:59:54;;;;;;;;;;;;;;;;;;10313834;28;19930;-83
2022/11/02 10:04:55;;;;;;;;;;;;;;;;;;10352580;28;19926;-83
2022/11/02 10:09:55;;;;;;;;;;;;;;;;;;10352065;28;19918;-83
2022/11/02 10:14:55;;;;;;;;;;;;;;;;;;10357812;28;19980;-84
2022/11/02 10:19:57;;;;;;;;;;;;;;;;;;10361306;28;19933;-81
2022/11/02 10:25:00;;;;;;;;;;;;;;;;;;10364411;28;19913;-85
2022/11/02 10:30:00;;;;;;;;;;;;;;;;;;10353770;28;19902;-81
2022/11/02 10:35:00;;;;;;;;;;;;;;;;;;10359106;28;19906;-82
2022/11/02 10:40:01;;;;;;;;;;;;;;;;;;10370546;28;19924;-81
2022/11/02 10:45:01;;;;;;;;;;;;;;;;;;10328057;28;20392;-81
2022/11/02 10:50:01;;;;;;;;;;;;;;;;;;10339215;28;20025;-79
2022/11/02 10:55:01;;;;;;;;;;;;;;;;;;10322109;28;19959;-78
2022/11/02 11:00:02;;;;;;;;;;;;;;;;;;10343077;28;19926;-87
2022/11/02 11:05:03;;;;;;;;;;;;;;;;;;10326265;28;19922;-82
2022/11/02 11:10:03;;;;;;;;;;;;;;;;;;10323225;28;19929;-87
2022/11/02 11:15:05;;;;;;;;;;;;;;;;;;10325086;28;19933;-83
2022/11/02 11:20:09;;;;;;;;;;;;;;;;;;10374218;28;20133;-83
2022/11/02 11:25:10;;;;;;;;;;;;;;;;;;10425848;23;20437;-82
2022/11/02 11:30:10;;;;;;;;;;;;;;;;;;10358066;28;19928;-80
2022/11/02 11:35:10;;;;;;;;;;;;;;;;;;10373610;28;19918;-77
2022/11/02 11:40:10;;;;;;;;;;;;;;;;;;10352442;28;19930;-76
2022/11/02 11:45:11;;;;;;;;;;;;;;;;;;10342609;28;19925;-80
2022/11/02 11:50:12;;;;;;;;;;;;;;;;;;10327357;28;19925;-77
2022/11/02 11:55:12;;;;;;;;;;;;;;;;;;10343617;28;19929;-78
2022/11/02 12:00:12;;;;;;;;;;;;;;;;;;10345511;28;19929;-83
2022/11/02 12:05:13;;;;;;;;;;;;;;;;;;10346727;28;20084;-77
2022/11/02 12:10:14;;;;;;;;;;;;;;;;;;10348906;28;19917;-78
2022/11/02 12:15:14;;;;;;;;;;;;;;;;;;10315558;28;19921;-77
2022/11/02 12:20:15;;;;;;;;;;;;;;;;;;10352107;28;19930;-77
2022/11/02 12:25:16;;;;;;;;;;;;;;;;;;10348695;28;19996;-76
2022/11/02 12:30:16;;;;;;;;;;;;;;;;;;10342346;28;20787;-77
2022/11/02 12:35:16;;;;;;;;;;;;;;;;;;10335812;28;20388;-76
2022/11/02 12:40:17;;;;;;;;;;;;;;;;;;10343061;28;19937;-80
2022/11/02 12:45:17;;;;;;;;;;;;;;;;;;10324834;28;20279;-77
2022/11/02 12:50:17;;;;;;;;;;;;;;;;;;10344744;28;19922;-78
2022/11/02 12:55:17;;;;;;;;;;;;;;;;;;10346644;28;19926;-76
2022/11/02 13:00:18;;;;;;;;;;;;;;;;;;10350202;28;19934;-78
2022/11/02 13:05:20;;;;;;;;;;;;;;;;;;10341768;28;19975;-78
2022/11/02 13:10:20;;;;;;;;;;;;;;;;;;10342944;28;19925;-79
2022/11/02 13:15:20;;;;;;;;;;;;;;;;;;10350365;28;19906;-78
2022/11/02 13:20:21;;;;;;;;;;;;;;;;;;10338440;28;20397;-76
2022/11/02 13:25:22;;;;;;;;;;;;;;;;;;10365773;28;19930;-78
2022/11/02 13:30:23;;;;;;;;;;;;;;;;;;10374843;28;19922;-80
2022/11/02 13:35:24;;;;;;;;;;;;;;;;;;10382230;28;19928;-78
2022/11/02 13:40:28;;;;;;;;;;;;;;;;;;10385039;28;19940;-77
2022/11/02 13:45:28;;;;;;;;;;;;;;;;;;10371959;28;19924;-79
2022/11/02 13:50:29;;;;;;;;;;;;;;;;;;10358095;28;19924;-79
2022/11/02 13:55:29;;;;;;;;;;;;;;;;;;10346270;28;20251;-77
2022/11/02 14:00:30;;;;;;;;;;;;;;;;;;10344038;28;19929;-78
2022/11/02 14:05:30;;;;;;;;;;;;;;;;;;10354027;28;20400;-78
2022/11/02 14:10:31;;;;;;;;;;;;;;;;;;10344621;28;19928;-78
2022/11/02 14:15:36;;;;;;;;;;;;;;;;;;10363206;28;20020;-80
2022/11/02 14:20:37;;;;;;;;;;;;;;;;;;10370152;28;19934;-79
2022/11/02 14:25:37;;;;;;;;;;;;;;;;;;10374498;28;19926;-79
2022/11/02 14:30:38;;;;;;;;;;;;;;;;;;10353080;28;20379;-79
2022/11/02 14:35:42;;;;;;;;;;;;;;;;;;10387668;28;20365;-79
2022/11/02 14:40:42;;;;;;;;;;;;;;;;;;10360797;28;19929;-78
2022/11/02 14:45:43;;;;;;;;;;;;;;;;;;10390398;28;19921;-80
2022/11/02 14:50:43;;;;;;;;;;;;;;;;;;10400214;28;20014;-79
2022/11/02 14:55:45;;;;;;;;;;;;;;;;;;10388611;28;19921;-80
2022/11/02 15:00:45;;;;;;;;;;;;;;;;;;10383802;28;19941;-78
2022/11/02 15:05:48;;;;;;;;;;;;;;;;;;10386330;28;19925;-80
2022/11/02 15:10:48;;;;;;;;;;;;;;;;;;10352677;28;19929;-79
2022/11/02 15:15:49;;;;;;;;;;;;;;;;;;10394514;28;19980;-78
2022/11/02 15:20:49;;;;;;;;;;;;;;;;;;10382024;28;19931;-77
2022/11/02 15:25:51;;;;;;;;;;;;;;;;;;10391277;28;19917;-80
2022/11/02 15:30:51;;;;;;;;;;;;;;;;;;10380990;28;19925;-79
2022/11/02 15:35:52;;;;;;;;;;;;;;;;;;10386733;28;20015;-79
2022/11/02 15:40:54;;;;;;;;;;;;;;;;;;10389242;28;20439;-79
2022/11/02 15:45:54;;;;;;;;;;;;;;;;;;10380453;28;19917;-79
2022/11/02 15:50:54;;;;;;;;;;;;;;;;;;10367623;28;20051;-78
2022/11/02 15:55:54;;;;;;;;;;;;;;;;;;10403244;28;19917;-77
2022/11/02 16:00:55;;;;;;;;;;;;;;;;;;10401653;28;19939;-77
2022/11/02 16:05:55;;;;;;;;;;;;;;;;;;10408891;28;19921;-77
2022/11/02 16:10:55;;;;;;;;;;;;;;;;;;10362059;28;19968;-77
2022/11/02 16:15:55;;;;;;;;;;;;;;;;;;10374714;28;19925;-77
2022/11/02 16:20:56;;;;;;;;;;;;;;;;;;10379456;28;19936;-79
2022/11/02 16:25:56;;;;;;;;;;;;;;;;;;10380311;28;20370;-79
2022/11/02 16:30:58;;;;;;;;;;;;;;;;;;10366302;28;19921;-76
2022/11/02 16:35:58;;;;;;;;;;;;;;;;;;10380429;28;19932;-78
2022/11/02 16:41:01;;;;;;;;;;;;;;;;;;10388065;28;20292;-78
2022/11/02 16:46:02;;;;;;;;;;;;;;;;;;10359083;28;19921;-77
2022/11/02 16:51:03;;;;;;;;;;;;;;;;;;10385310;28;19918;-77
2022/11/02 16:56:03;;;;;;;;;;;;;;;;;;10388741;28;19920;-78
2022/11/02 17:01:06;;;;;;;;;;;;;;;;;;10359318;28;19991;-80
2022/11/02 17:06:07;;;;;;;;;;;;;;;;;;10364873;28;19928;-78
2022/11/02 17:11:07;;;;;;;;;;;;;;;;;;10380367;28;19928;-78
2022/11/02 17:16:07;;;;;;;;;;;;;;;;;;10363841;28;20416;-77
2022/11/02 17:21:09;;;;;;;;;;;;;;;;;;10357803;28;20352;-80
2022/11/02 17:26:09;;;;;;;;;;;;;;;;;;10372581;28;20389;-79
2022/11/02 17:31:11;;;;;;;;;;;;;;;;;;10371384;28;19918;-78
2022/11/02 17:36:11;;;;;;;;;;;;;;;;;;10371593;28;19917;-78
2022/11/02 17:46:36;;;;;;;;;;;;;;;;;;10368090;28;20357;-80
2022/11/02 17:51:36;;;;;;;;;;;;;;;;;;10390133;28;19918;-80
2022/11/02 17:56:36;;;;;;;;;;;;;;;;;;10388406;28;20008;-78
2022/11/02 18:01:36;;;;;;;;;;;;;;;;;;10391603;28;19930;-79
2022/11/02 18:06:37;;;;;;;;;;;;;;;;;;10374664;28;19998;-78
2022/11/02 18:11:37;;;;;;;;;;;;;;;;;;10401525;28;19925;-78
2022/11/02 18:16:37;;;;;;;;;;;;;;;;;;10375947;28;19947;-81
2022/11/02 18:21:38;;;;;;;;;;;;;;;;;;10390011;28;20317;-78
2022/11/02 18:26:38;;;;;;;;;;;;;;;;;;10380939;28;19921;-77
2022/11/02 18:31:38;;;;;;;;;;;;;;;;;;10380965;28;20302;-78
2022/11/02 18:36:38;;;;;;;;;;;;;;;;;;10368257;28;20434;-77
2022/11/02 18:41:41;;;;;;;;;;;;;;;;;;10383173;28;19934;-78
2022/11/02 18:46:43;;;;;;;;;;;;;;;;;;10400136;28;19984;-78
2022/11/02 18:51:44;;;;;;;;;;;;;;;;;;10396534;28;19960;-79
2022/11/02 18:56:44;;;;;;;;;;;;;;;;;;10408869;28;19918;-76
2022/11/02 19:01:45;;;;;;;;;;;;;;;;;;10388657;28;19933;-78
2022/11/02 19:12:07;;;;;;;;;;;;;;;;;;10396683;28;19924;-79
2022/11/02 19:17:07;;;;;;;;;;;;;;;;;;10405176;28;20384;-78
2022/11/02 19:22:08;;;;;;;;;;;;;;;;;;10414768;28;19933;-80
2022/11/02 19:27:08;;;;;;;;;;;;;;;;;;10415297;28;20060;-78
2022/11/02 19:32:08;;;;;;;;;;;;;;;;;;10401253;28;20012;-81
2022/11/02 19:37:08;;;;;;;;;;;;;;;;;;10396938;28;19922;-75
2022/11/02 19:42:09;;;;;;;;;;;;;;;;;;10403248;28;20056;-77
2022/11/02 19:47:09;;;;;;;;;;;;;;;;;;10402613;28;19928;-76
2022/11/02 19:52:09;;;;;;;;;;;;;;;;;;10390847;28;19932;-79
2022/11/02 19:57:09;;;;;;;;;;;;;;;;;;10410351;28;19921;-78
2022/11/02 20:02:10;;;;;;;;;;;;;;;;;;10402991;28;19933;-80
2022/11/02 20:07:11;;;;;;;;;;;;;;;;;;10395720;28;19943;-80
2022/11/02 20:12:11;;;;;;;;;;;;;;;;;;10400330;28;19983;-79
2022/11/02 20:17:13;;;;;;;;;;;;;;;;;;10393822;28;19972;-80
2022/11/02 20:22:14;;;;;;;;;;;;;;;;;;10395579;28;19990;-79
2022/11/02 20:27:14;;;;;;;;;;;;;;;;;;10384577;28;19921;-80
2022/11/02 20:32:19;;;;;;;;;;;;;;;;;;10367324;28;19921;-81
2022/11/02 20:37:19;;;;;;;;;;;;;;;;;;10387728;28;19921;-77
2022/11/02 20:42:20;;;;;;;;;;;;;;;;;;10387519;28;19925;-78
2022/11/02 20:47:21;;;;;;;;;;;;;;;;;;10381229;28;19918;-77
2022/11/02 20:52:21;;;;;;;;;;;;;;;;;;10387542;28;19925;-78
2022/11/02 20:57:22;;;;;;;;;;;;;;;;;;10360363;28;19928;-77
2022/11/02 21:02:23;;;;;;;;;;;;;;;;;;10383951;28;20358;-78
2022/11/02 21:07:23;;;;;;;;;;;;;;;;;;10385486;28;20322;-80
2022/11/02 21:17:43;;;;;;;;;;;;;;;;;;10386105;28;19925;-78
2022/11/02 21:22:43;;;;;;;;;;;;;;;;;;10380341;28;19948;-76
2022/11/02 21:27:43;;;;;;;;;;;;;;;;;;10374067;28;19921;-79
2022/11/02 21:32:43;;;;;;;;;;;;;;;;;;10363822;28;19922;-79
2022/11/02 21:37:44;;;;;;;;;;;;;;;;;;10388983;28;19948;-80
2022/11/02 21:42:44;;;;;;;;;;;;;;;;;;10400690;28;20350;-76
2022/11/02 21:47:44;;;;;;;;;;;;;;;;;;10407684;28;19924;-80
2022/11/02 21:52:44;;;;;;;;;;;;;;;;;;10389358;28;19917;-78
2022/11/02 21:57:45;;;;;;;;;;;;;;;;;;10380415;28;20416;-78
2022/11/02 22:02:45;;;;;;;;;;;;;;;;;;10380993;28;19933;-77
2022/11/02 22:18:24;;;;;;;;;;;;;;;;;;10395033;28;20547;-77
2022/11/02 22:23:25;;;;;;;;;;;;;;;;;;10385036;28;20040;-78
2022/11/02 22:28:25;;;;;;;;;;;;;;;;;;10390850;28;20376;-77
2022/11/02 22:33:25;;;;;;;;;;;;;;;;;;10379430;28;20376;-78
2022/11/02 22:43:45;;;;;;;;;;;;;;;;;;10388481;28;19925;-77
2022/11/02 22:48:45;;;;;;;;;;;;;;;;;;10380798;28;19921;-78
2022/11/02 22:53:47;;;;;;;;;;;;;;;;;;10388311;28;19933;-79
2022/11/02 22:58:48;;;;;;;;;;;;;;;;;;10377988;28;20415;-78
2022/11/02 23:03:48;;;;;;;;;;;;;;;;;;10391444;28;19929;-78
2022/11/02 23:08:48;;;;;;;;;;;;;;;;;;10396630;28;19921;-80
2022/11/02 23:13:48;;;;;;;;;;;;;;;;;;10375718;28;20020;-79
2022/11/02 23:40:04;;;;;;;;;;;;;;;;;;10390176;28;20381;-80
2022/11/02 23:45:05;;;;;;;;;;;;;;;;;;10383169;28;19921;-79
2022/11/02 23:50:05;;;;;;;;;;;;;;;;;;10405830;28;19921;-79
